Time;durP1;ratioP1;P1;durP2;ratioP2;P2;SDS_P1;SDS_P2;PMS_P1;PMS_P2;Temp;Humidity;BMP_temperature;BMP_pressure;BME280_temperature;BME280_humidity;BME280_pressure;Samples;Min_cycle;Max_cycle;Signal;HPM_P1;HPM_P2
2022/05/27 00:02:16;;;;;;;117.97;106.88;;;14.80;99.80;;;;;;4955367;28;20062;-77
2022/05/27 00:04:43;;;;;;;116.88;105.95;;;14.80;99.80;;;;;;4939453;28;20220;-78
2022/05/27 00:07:10;;;;;;;120.45;109.15;;;14.80;99.80;;;;;;4955210;28;20051;-77
2022/05/27 00:09:38;;;;;;;118.88;107.78;;;14.80;99.70;;;;;;4939416;28;20462;-77
2022/05/27 00:12:06;;;;;;;117.85;106.78;;;14.80;99.70;;;;;;4954923;28;20279;-77
2022/05/27 00:14:33;;;;;;;117.63;106.63;;;14.70;99.70;;;;;;4939253;28;20148;-77
2022/05/27 00:17:00;;;;;;;120.47;108.82;;;14.70;99.60;;;;;;4954676;28;20059;-78
2022/05/27 00:19:27;;;;;;;117.72;106.32;;;14.60;99.60;;;;;;4955232;28;20134;-77
2022/05/27 00:21:54;;;;;;;117.70;106.70;;;14.60;99.60;;;;;;4939383;28;20556;-77
2022/05/27 00:24:22;;;;;;;117.45;106.60;;;14.60;99.60;;;;;;4956690;28;20048;-77
2022/05/27 00:26:50;;;;;;;116.97;106.18;;;14.50;99.60;;;;;;4938980;28;20090;-77
2022/05/27 00:29:17;;;;;;;118.57;107.38;;;14.50;99.50;;;;;;4954708;28;20048;-77
2022/05/27 00:31:44;;;;;;;118.97;107.82;;;14.50;99.60;;;;;;4954862;28;20163;-77
2022/05/27 00:34:13;;;;;;;118.68;107.68;;;14.50;99.60;;;;;;4938735;28;20052;-77
2022/05/27 00:36:40;;;;;;;118.43;107.32;;;14.50;99.60;;;;;;4954614;28;20055;-77
2022/05/27 00:39:07;;;;;;;118.78;107.78;;;14.50;99.60;;;;;;4938618;28;20059;-77
2022/05/27 00:41:34;;;;;;;119.60;108.40;;;14.40;99.60;;;;;;4954815;28;20091;-77
2022/05/27 00:44:03;;;;;;;118.97;107.80;;;14.40;99.70;;;;;;4954750;28;20625;-77
2022/05/27 00:46:32;;;;;;;118.45;107.32;;;14.40;99.70;;;;;;4938439;28;20087;-77
2022/05/27 00:49:05;;;;;;;118.50;107.07;;;14.40;99.80;;;;;;4954521;28;20062;-77
2022/05/27 00:51:35;;;;;;;118.20;107.03;;;14.40;99.80;;;;;;4938650;28;20062;-77
2022/05/27 00:54:10;;;;;;;118.50;107.35;;;14.40;99.80;;;;;;4953509;28;20086;-76
2022/05/27 00:56:40;;;;;;;118.05;106.85;;;14.40;99.80;;;;;;4938942;28;20531;-78
2022/05/27 00:59:16;;;;;;;119.43;107.80;;;14.40;99.90;;;;;;4955697;28;20103;-77
2022/05/27 01:01:43;;;;;;;119.80;108.10;;;14.40;99.90;;;;;;4956227;28;20514;-76
2022/05/27 01:04:11;;;;;;;118.07;106.93;;;14.40;99.90;;;;;;4938148;28;20585;-77
2022/05/27 01:06:38;;;;;;;118.72;107.35;;;14.40;99.90;;;;;;4955215;28;20052;-77
2022/05/27 01:09:06;;;;;;;117.03;105.78;;;14.40;99.90;;;;;;4954194;28;20088;-77
2022/05/27 01:11:47;;;;;;;119.90;108.50;;;14.40;99.90;;;;;;4938128;28;20175;-77
2022/05/27 01:14:24;;;;;;;120.30;108.88;;;14.30;99.90;;;;;;4954081;28;20123;-77
2022/05/27 01:17:02;;;;;;;117.68;106.53;;;14.40;99.90;;;;;;4955795;28;20801;-77
2022/05/27 01:20:21;;;;;;;119.25;107.70;;;14.40;99.90;;;;;;4954786;28;20123;-77
2022/05/27 01:23:25;;;;;;;116.78;105.68;;;14.40;99.90;;;;;;4955090;28;20056;-77
2022/05/27 01:26:35;;;;;;;118.63;107.20;;;14.30;99.90;;;;;;4929855;28;20062;-77
2022/05/27 01:29:20;;;;;;;117.45;106.30;;;14.30;99.90;;;;;;4955251;28;20278;-77
2022/05/27 01:31:52;;;;;;;118.25;106.60;;;14.30;99.90;;;;;;4955426;28;20085;-77
2022/05/27 01:34:26;;;;;;;118.70;107.28;;;14.30;99.90;;;;;;4938346;28;20056;-77
2022/05/27 01:37:03;;;;;;;118.50;107.28;;;14.30;99.90;;;;;;4954850;28;20071;-77
2022/05/27 01:39:42;;;;;;;119.80;108.45;;;14.30;99.90;;;;;;4938072;28;20537;-76
2022/05/27 01:42:14;;;;;;;116.85;105.65;;;14.30;99.90;;;;;;4954560;28;20055;-77
2022/05/27 01:44:47;;;;;;;119.05;107.60;;;14.30;99.90;;;;;;4938054;28;20086;-76
2022/05/27 01:47:25;;;;;;;118.72;107.57;;;14.20;99.80;;;;;;4953473;28;20079;-77
2022/05/27 01:50:02;;;;;;;118.03;106.50;;;14.20;99.80;;;;;;4938111;28;20142;-77
2022/05/27 01:52:36;;;;;;;120.82;109.18;;;14.30;99.90;;;;;;4955106;28;20074;-77
2022/05/27 01:55:08;;;;;;;118.70;107.40;;;14.20;99.80;;;;;;4955586;28;20486;-77
2022/05/27 01:57:42;;;;;;;118.70;106.93;;;14.30;99.90;;;;;;4953367;28;20482;-77
2022/05/27 02:00:12;;;;;;;121.00;108.30;;;14.20;99.80;;;;;;4937830;28;20051;-76
2022/05/27 02:02:45;;;;;;;118.70;106.75;;;14.20;99.80;;;;;;4955113;28;20063;-77
2022/05/27 02:05:17;;;;;;;120.45;108.50;;;14.20;99.80;;;;;;4939681;28;20494;-77
2022/05/27 02:07:48;;;;;;;119.22;107.65;;;14.20;99.80;;;;;;4940695;28;20058;-76
2022/05/27 02:10:21;;;;;;;120.43;108.38;;;14.10;99.80;;;;;;4941065;28;20055;-77
2022/05/27 02:12:53;;;;;;;120.00;108.25;;;14.10;99.80;;;;;;4958319;28;20056;-77
2022/05/27 02:15:27;;;;;;;119.22;107.25;;;14.10;99.80;;;;;;4958680;28;20063;-77
2022/05/27 02:18:00;;;;;;;119.25;107.68;;;14.10;99.90;;;;;;4956391;28;20131;-77
2022/05/27 02:20:31;;;;;;;119.80;107.93;;;14.10;99.80;;;;;;4956767;28;20064;-77
2022/05/27 02:23:00;;;;;;;120.35;108.20;;;14.10;99.80;;;;;;4956645;28;20127;-76
2022/05/27 02:25:31;;;;;;;118.75;107.28;;;14.00;99.80;;;;;;4956887;28;20048;-77
2022/05/27 02:28:04;;;;;;;120.93;108.72;;;14.10;99.90;;;;;;4940761;28;20051;-77
2022/05/27 02:30:34;;;;;;;121.15;108.75;;;14.00;99.80;;;;;;4940727;28;20063;-76
2022/05/27 02:35:52;;;;;;;120.45;107.85;;;14.00;99.80;;;;;;4940547;28;20139;-77
2022/05/27 02:38:19;;;;;;;119.53;107.43;;;14.00;99.70;;;;;;4956365;28;20566;-76
2022/05/27 02:40:57;;;;;;;123.45;111.10;;;14.00;99.60;;;;;;4940698;28;20052;-77
2022/05/27 02:43:33;;;;;;;120.38;108.47;;;13.90;99.60;;;;;;4956737;28;20082;-77
2022/05/27 02:46:07;;;;;;;121.82;109.18;;;13.90;99.80;;;;;;4940539;28;20066;-77
2022/05/27 02:48:43;;;;;;;119.80;108.00;;;13.90;99.60;;;;;;4956383;28;20079;-77
2022/05/27 02:51:21;;;;;;;120.22;107.90;;;13.80;99.60;;;;;;4940005;28;20092;-77
2022/05/27 02:53:55;;;;;;;120.80;108.00;;;13.80;99.60;;;;;;4956243;28;20111;-77
2022/05/27 02:56:25;;;;;;;119.85;107.75;;;13.80;99.60;;;;;;4956240;28;20118;-77
2022/05/27 02:58:54;;;;;;;120.93;108.60;;;13.70;99.60;;;;;;4957243;28;20523;-77
2022/05/27 03:01:21;;;;;;;120.78;108.15;;;13.80;99.70;;;;;;4957778;28;20052;-78
2022/05/27 03:03:51;;;;;;;121.50;109.75;;;13.70;99.60;;;;;;4957084;28;20052;-76
2022/05/27 03:06:32;;;;;;;120.95;109.28;;;13.70;99.70;;;;;;4957188;28;20051;-76
2022/05/27 03:09:05;;;;;;;119.78;107.60;;;13.70;99.60;;;;;;4939580;28;20099;-76
2022/05/27 03:11:46;;;;;;;121.93;109.43;;;13.70;99.60;;;;;;4957326;28;20142;-77
2022/05/27 03:14:34;;;;;;;121.10;108.82;;;13.70;99.60;;;;;;4940123;28;20061;-77
2022/05/27 03:17:13;;;;;;;122.97;110.00;;;13.70;99.70;;;;;;4938602;28;20131;-77
2022/05/27 03:19:53;;;;;;;121.85;109.18;;;13.70;99.60;;;;;;4940085;28;20131;-77
2022/05/27 03:22:36;;;;;;;120.68;108.38;;;13.70;99.50;;;;;;4955451;28;20056;-76
2022/05/27 03:25:17;;;;;;;120.95;108.80;;;13.60;99.50;;;;;;4939880;28;20430;-77
2022/05/27 03:27:48;;;;;;;119.72;107.68;;;13.60;99.60;;;;;;4957199;28;20142;-76
2022/05/27 03:30:20;;;;;;;120.63;108.68;;;13.60;99.60;;;;;;4939694;28;20047;-77
2022/05/27 03:32:51;;;;;;;120.20;107.95;;;13.60;99.60;;;;;;4955621;28;20843;-77
2022/05/27 03:35:27;;;;;;;122.65;110.00;;;13.60;99.60;;;;;;4939873;28;20524;-77
2022/05/27 03:38:00;;;;;;;120.88;108.45;;;13.50;99.60;;;;;;4939398;28;20048;-76
2022/05/27 03:40:33;;;;;;;121.75;109.05;;;13.50;99.60;;;;;;4939875;28;20115;-77
2022/05/27 03:43:03;;;;;;;121.20;108.88;;;13.50;99.60;;;;;;4923539;28;20139;-77
2022/05/27 03:45:30;;;;;;;122.80;110.10;;;13.50;99.60;;;;;;4939503;28;20043;-77
2022/05/27 03:47:57;;;;;;;119.63;107.80;;;13.50;99.50;;;;;;4956236;28;20077;-77
2022/05/27 03:50:27;;;;;;;120.88;108.78;;;13.50;99.50;;;;;;4939751;28;20804;-77
2022/05/27 03:52:56;;;;;;;120.20;107.82;;;13.50;99.60;;;;;;4955489;28;20051;-77
2022/05/27 03:55:26;;;;;;;122.60;110.32;;;13.50;99.60;;;;;;4956764;28;20138;-77
2022/05/27 03:57:53;;;;;;;121.20;108.88;;;13.40;99.50;;;;;;4956832;28;20048;-77
2022/05/27 04:00:21;;;;;;;121.43;109.35;;;13.40;99.50;;;;;;4939231;28;20048;-77
2022/05/27 04:02:48;;;;;;;121.05;108.93;;;13.40;99.50;;;;;;4956758;28;20430;-77
2022/05/27 04:05:17;;;;;;;120.38;108.63;;;13.40;99.50;;;;;;4956783;28;20138;-77
2022/05/27 04:07:46;;;;;;;119.65;107.35;;;13.40;99.60;;;;;;4939303;28;20047;-76
2022/05/27 04:10:15;;;;;;;120.38;107.97;;;13.40;99.60;;;;;;4957019;28;20058;-76
2022/05/27 04:12:42;;;;;;;119.18;107.32;;;13.40;99.50;;;;;;4939093;28;20485;-76
2022/05/27 04:15:09;;;;;;;119.20;107.32;;;13.40;99.50;;;;;;4955185;28;20062;-77
2022/05/27 04:17:36;;;;;;;120.65;108.20;;;13.40;99.50;;;;;;4939159;28;20092;-77
2022/05/27 04:20:06;;;;;;;120.10;108.15;;;13.40;99.50;;;;;;4956391;28;20067;-77
2022/05/27 04:22:33;;;;;;;120.22;108.20;;;13.40;99.40;;;;;;4938375;28;20059;-77
2022/05/27 04:25:02;;;;;;;118.57;106.50;;;13.40;99.40;;;;;;4955380;28;20062;-76
2022/05/27 04:27:29;;;;;;;120.40;108.43;;;13.40;99.30;;;;;;4955837;28;20140;-76
2022/05/27 04:29:56;;;;;;;118.15;105.75;;;13.40;99.20;;;;;;4956083;28;20079;-77
2022/05/27 04:32:25;;;;;;;119.32;107.30;;;13.40;99.30;;;;;;4954825;28;20054;-76
2022/05/27 04:34:52;;;;;;;116.57;104.85;;;13.30;99.20;;;;;;4939497;28;20570;-77
2022/05/27 04:37:21;;;;;;;118.60;106.93;;;13.30;99.30;;;;;;4957976;28;20054;-78
2022/05/27 04:39:48;;;;;;;118.32;106.07;;;13.30;99.30;;;;;;4938400;28;20083;-76
2022/05/27 04:42:16;;;;;;;120.63;108.50;;;13.30;99.30;;;;;;4954551;28;20533;-77
2022/05/27 04:44:43;;;;;;;120.35;107.78;;;13.30;99.30;;;;;;4954766;28;20090;-76
2022/05/27 04:47:11;;;;;;;119.90;107.97;;;13.30;99.10;;;;;;4938567;28;20056;-77
2022/05/27 04:49:58;;;;;;;120.28;107.78;;;13.30;99.10;;;;;;4956139;28;20051;-77
2022/05/27 04:52:27;;;;;;;118.20;106.43;;;13.30;99.10;;;;;;4938645;28;20541;-77
2022/05/27 04:54:56;;;;;;;118.97;107.03;;;13.30;99.10;;;;;;4954682;28;20107;-77
2022/05/27 04:57:30;;;;;;;119.47;107.30;;;13.30;99.10;;;;;;4954254;28;20522;-77
2022/05/27 04:59:57;;;;;;;118.13;106.63;;;13.30;99.00;;;;;;4938694;28;20044;-77
2022/05/27 05:02:24;;;;;;;118.63;106.65;;;13.20;99.00;;;;;;4954583;28;20075;-77
2022/05/27 05:04:52;;;;;;;118.20;106.32;;;13.20;99.00;;;;;;4955288;28;20054;-77
2022/05/27 05:07:22;;;;;;;122.13;109.75;;;13.20;99.00;;;;;;4955820;28;20055;-77
2022/05/27 05:09:49;;;;;;;120.30;108.25;;;13.20;99.00;;;;;;4934114;29;20049;-77
2022/05/27 05:12:22;;;;;;;118.05;106.25;;;13.20;99.00;;;;;;4934791;29;20060;-76
2022/05/27 05:14:50;;;;;;;120.03;107.30;;;13.20;99.00;;;;;;4936100;29;20063;-76
2022/05/27 05:17:18;;;;;;;120.93;109.10;;;13.20;99.00;;;;;;4934399;29;20096;-76
2022/05/27 05:19:45;;;;;;;120.38;108.20;;;13.20;98.90;;;;;;4935978;29;20048;-77
2022/05/27 05:22:12;;;;;;;118.60;106.30;;;13.20;98.80;;;;;;4934042;29;20052;-77
2022/05/27 05:24:39;;;;;;;119.35;107.47;;;13.20;98.70;;;;;;4934607;29;20052;-77
2022/05/27 05:27:07;;;;;;;121.70;109.22;;;13.20;98.80;;;;;;4934535;29;20083;-76
2022/05/27 05:29:34;;;;;;;120.20;107.65;;;13.20;98.70;;;;;;4934403;29;20127;-77
2022/05/27 05:32:04;;;;;;;118.93;106.45;;;13.20;98.70;;;;;;4934473;29;20059;-76
2022/05/27 05:34:31;;;;;;;120.00;107.90;;;13.20;98.80;;;;;;4934055;29;20091;-79
2022/05/27 05:36:58;;;;;;;118.03;106.40;;;13.20;98.80;;;;;;4934287;29;20545;-78
2022/05/27 05:39:25;;;;;;;119.82;107.70;;;13.20;98.70;;;;;;4932964;29;20056;-78
2022/05/27 05:41:59;;;;;;;119.65;107.70;;;13.20;98.70;;;;;;4934341;29;20151;-78
2022/05/27 05:44:30;;;;;;;118.68;107.05;;;13.20;98.60;;;;;;4949148;28;20388;-77
2022/05/27 05:46:57;;;;;;;118.50;106.95;;;13.30;98.40;;;;;;4934615;29;20060;-78
2022/05/27 05:49:25;;;;;;;116.97;105.13;;;13.30;98.10;;;;;;4934445;29;20059;-80
2022/05/27 05:51:54;;;;;;;118.03;106.32;;;13.30;98.00;;;;;;4934318;29;20059;-79
2022/05/27 05:54:21;;;;;;;117.68;105.93;;;13.30;97.90;;;;;;4934872;29;20052;-79
2022/05/27 05:56:49;;;;;;;118.38;106.47;;;13.30;97.80;;;;;;4934600;29;20055;-77
2022/05/27 05:59:17;;;;;;;116.20;104.68;;;13.30;97.80;;;;;;4933887;29;20537;-78
2022/05/27 06:01:44;;;;;;;118.78;106.95;;;13.30;97.80;;;;;;4934020;29;20040;-77
2022/05/27 06:04:12;;;;;;;118.50;106.35;;;13.30;97.60;;;;;;4934177;29;20062;-78
2022/05/27 06:06:41;;;;;;;118.15;106.65;;;13.30;97.50;;;;;;4955045;28;20056;-77
2022/05/27 06:09:08;;;;;;;119.38;107.18;;;13.30;97.20;;;;;;4953475;28;20155;-77
2022/05/27 06:11:36;;;;;;;117.75;105.90;;;13.30;97.30;;;;;;4944397;28;20051;-78
2022/05/27 06:14:03;;;;;;;118.95;106.82;;;13.40;97.30;;;;;;4953675;28;20047;-77
2022/05/27 06:16:30;;;;;;;120.25;108.40;;;13.40;97.30;;;;;;4944700;28;20068;-80
2022/05/27 06:18:58;;;;;;;119.28;107.47;;;13.40;97.20;;;;;;4944081;28;20070;-79
2022/05/27 06:21:25;;;;;;;118.82;106.90;;;13.40;97.20;;;;;;4937681;28;20521;-78
2022/05/27 06:23:54;;;;;;;118.72;106.72;;;13.40;97.10;;;;;;4937120;28;20055;-77
2022/05/27 06:26:21;;;;;;;117.93;106.28;;;13.40;96.90;;;;;;4936774;28;20059;-79
2022/05/27 06:34:25;;;;;;;117.00;105.07;;;13.50;96.50;;;;;;4969884;28;20051;-80
2022/05/27 06:36:55;;;;;;;121.15;108.60;;;13.50;95.90;;;;;;4972057;28;20059;-77
2022/05/27 06:39:25;;;;;;;120.40;108.45;;;13.50;95.50;;;;;;4973291;28;20058;-76
2022/05/27 06:41:52;;;;;;;119.32;106.95;;;13.50;95.10;;;;;;4971902;28;20082;-76
2022/05/27 06:44:21;;;;;;;120.80;108.38;;;13.50;95.20;;;;;;4966272;28;20056;-76
2022/05/27 06:46:51;;;;;;;122.10;109.32;;;13.50;95.30;;;;;;4941956;28;20147;-76
2022/05/27 06:49:19;;;;;;;121.63;109.10;;;13.60;95.10;;;;;;4963276;28;20058;-76
2022/05/27 06:51:46;;;;;;;120.72;108.72;;;13.60;95.40;;;;;;4939176;28;20044;-77
2022/05/27 06:54:14;;;;;;;121.18;108.90;;;13.60;95.40;;;;;;4955993;28;20055;-75
2022/05/27 06:56:44;;;;;;;120.38;108.07;;;13.60;95.20;;;;;;4957622;28;20174;-76
2022/05/27 06:59:14;;;;;;;121.20;109.20;;;13.60;94.40;;;;;;4939838;28;20545;-77
2022/05/27 07:01:41;;;;;;;122.05;109.65;;;13.60;94.70;;;;;;4938320;28;20510;-77
2022/05/27 07:04:08;;;;;;;120.05;107.88;;;13.60;94.50;;;;;;4938374;28;20143;-77
2022/05/27 07:06:43;;;;;;;121.20;109.20;;;13.60;94.30;;;;;;4954294;28;20052;-76
2022/05/27 07:09:11;;;;;;;119.28;107.63;;;13.70;94.10;;;;;;4938253;28;20115;-76
2022/05/27 07:11:39;;;;;;;119.70;107.78;;;13.70;94.00;;;;;;4939900;28;20154;-76
2022/05/27 07:14:08;;;;;;;121.40;109.22;;;13.70;93.50;;;;;;4939314;28;20062;-76
2022/05/27 07:16:35;;;;;;;119.78;107.93;;;13.80;92.80;;;;;;4956053;28;20131;-77
2022/05/27 07:19:01;;;;;;;123.30;110.38;;;13.80;92.70;;;;;;4954012;28;20056;-76
2022/05/27 07:21:28;;;;;;;121.35;109.15;;;13.80;92.30;;;;;;4964943;28;20111;-76
2022/05/27 07:23:56;;;;;;;119.68;107.65;;;13.80;92.30;;;;;;4948851;28;20054;-76
2022/05/27 07:26:24;;;;;;;119.30;107.43;;;13.80;90.40;;;;;;4944644;28;20103;-77
2022/05/27 07:29:18;;;;;;;117.30;105.60;;;13.80;88.80;;;;;;4962372;28;20058;-77
2022/05/27 07:31:46;;;;;;;119.57;107.40;;;13.80;89.70;;;;;;4959302;28;20087;-79
2022/05/27 07:34:13;;;;;;;120.20;108.18;;;13.80;90.40;;;;;;4943014;28;20091;-77
2022/05/27 07:36:40;;;;;;;119.53;107.63;;;13.80;90.30;;;;;;4938763;28;20131;-76
2022/05/27 07:39:07;;;;;;;118.82;106.75;;;13.80;88.40;;;;;;4956144;28;20051;-79
2022/05/27 07:41:35;;;;;;;118.38;106.90;;;13.80;87.90;;;;;;4938848;28;20095;-78
2022/05/27 07:44:03;;;;;;;120.60;108.53;;;13.90;86.30;;;;;;4948419;28;20126;-77
2022/05/27 07:46:34;;;;;;;121.55;109.30;;;13.80;86.90;;;;;;4952585;28;20055;-79
2022/05/27 07:49:01;;;;;;;122.80;110.32;;;13.90;86.00;;;;;;4948570;28;20048;-78
2022/05/27 07:51:28;;;;;;;120.28;108.43;;;13.90;85.50;;;;;;4955839;28;20150;-77
2022/05/27 07:53:55;;;;;;;125.82;112.90;;;13.90;88.20;;;;;;4863844;28;20052;-76
2022/05/27 07:56:22;;;;;;;121.53;109.43;;;13.90;87.00;;;;;;4966285;28;20055;-76
2022/05/27 07:58:49;;;;;;;120.60;108.28;;;13.90;87.10;;;;;;4983050;28;20061;-75
2022/05/27 08:01:16;;;;;;;119.90;107.80;;;14.00;88.20;;;;;;4982069;28;20049;-77
2022/05/27 08:03:45;;;;;;;118.45;106.35;;;14.00;88.50;;;;;;4969311;28;20048;-77
2022/05/27 08:06:11;;;;;;;119.20;107.22;;;14.10;89.70;;;;;;4984151;28;20047;-78
2022/05/27 08:08:39;;;;;;;118.93;107.28;;;14.20;90.00;;;;;;4967638;28;20127;-77
2022/05/27 08:11:07;;;;;;;120.38;108.35;;;14.20;88.10;;;;;;4991081;28;20051;-79
2022/05/27 08:13:34;;;;;;;118.40;106.55;;;14.20;87.60;;;;;;4990100;28;20137;-80
2022/05/27 08:16:01;;;;;;;121.47;109.53;;;14.20;87.70;;;;;;4956533;28;20553;-78
2022/05/27 08:18:28;;;;;;;123.82;111.35;;;14.20;83.20;;;;;;4983801;28;20077;-77
2022/05/27 08:20:57;;;;;;;121.50;109.00;;;14.20;84.60;;;;;;4968107;28;20059;-77
2022/05/27 08:23:24;;;;;;;121.10;108.68;;;14.20;83.70;;;;;;4955718;28;20501;-79
2022/05/27 08:25:52;;;;;;;116.45;105.05;;;14.20;84.70;;;;;;4992380;28;20065;-77
2022/05/27 08:28:24;;;;;;;117.78;106.20;;;14.20;85.40;;;;;;4976890;28;20059;-80
2022/05/27 08:30:51;;;;;;;119.65;107.65;;;14.30;84.20;;;;;;4995088;28;20074;-79
2022/05/27 08:33:18;;;;;;;120.63;108.82;;;14.40;78.20;;;;;;4987251;28;20051;-79
2022/05/27 08:38:34;;;;;;;121.03;109.47;;;14.40;78.30;;;;;;4958508;28;20094;-80
2022/05/27 08:41:27;;;;;;;120.13;108.28;;;14.40;76.80;;;;;;4956497;28;20106;-79
2022/05/27 08:44:29;;;;;;;118.43;106.80;;;14.30;77.00;;;;;;4958003;28;20066;-80
2022/05/27 08:47:03;;;;;;;119.53;107.88;;;14.40;75.80;;;;;;4921333;29;20053;-82
2022/05/27 08:49:35;;;;;;;119.38;107.70;;;14.40;76.50;;;;;;4958649;28;20241;-79
2022/05/27 08:52:09;;;;;;;118.43;106.10;;;14.40;77.30;;;;;;4981612;28;20055;-81
2022/05/27 08:54:42;;;;;;;119.80;107.28;;;14.40;77.10;;;;;;4963333;28;20051;-83
2022/05/27 09:00:01;;;;;;;117.80;106.20;;;14.50;75.50;;;;;;4968130;28;20061;-80
2022/05/27 09:02:33;;;;;;;119.32;107.13;;;14.50;77.80;;;;;;4967554;28;20143;-80
2022/05/27 09:05:14;;;;;;;118.95;106.60;;;14.50;77.50;;;;;;4992630;28;20134;-80
2022/05/27 09:07:47;;;;;;;119.95;107.60;;;14.50;79.30;;;;;;4976169;28;20087;-80
2022/05/27 09:10:20;;;;;;;120.32;108.07;;;14.50;80.20;;;;;;4976441;28;20047;-81
2022/05/27 09:13:13;;;;;;;117.00;105.22;;;14.40;79.90;;;;;;4977015;28;20059;-81
2022/05/27 09:15:51;;;;;;;119.25;107.35;;;14.50;78.30;;;;;;4973774;28;20051;-79
2022/05/27 09:18:37;;;;;;;116.70;104.97;;;14.50;79.50;;;;;;4956798;28;20489;-85
2022/05/27 09:21:13;;;;;;;118.82;107.13;;;14.50;81.00;;;;;;4962205;28;20603;-83
2022/05/27 09:24:25;;;;;;;118.72;106.78;;;14.50;79.30;;;;;;4955769;28;20131;-82
2022/05/27 09:27:00;;;;;;;119.20;107.43;;;14.50;80.50;;;;;;4937642;28;20131;-77
2022/05/27 09:29:57;;;;;;;120.32;108.38;;;14.50;80.40;;;;;;4975656;28;20465;-77
2022/05/27 09:32:31;;;;;;;119.45;107.53;;;14.60;77.10;;;;;;4989803;28;20063;-76
2022/05/27 09:35:03;;;;;;;120.47;108.43;;;14.60;78.70;;;;;;4986553;28;20509;-76
2022/05/27 09:37:36;;;;;;;119.13;107.30;;;14.60;78.80;;;;;;4984959;28;20058;-77
2022/05/27 09:40:10;;;;;;;117.07;105.70;;;14.70;79.90;;;;;;4968756;28;20106;-81
2022/05/27 09:42:47;;;;;;;118.57;106.90;;;14.80;79.40;;;;;;4958317;28;20118;-80
2022/05/27 09:45:14;;;;;;;119.35;107.50;;;14.70;82.20;;;;;;4962477;28;20054;-78
2022/05/27 09:47:41;;;;;;;118.53;106.72;;;14.80;81.30;;;;;;4963990;28;20043;-79
2022/05/27 09:50:23;;;;;;;119.82;108.30;;;14.80;79.90;;;;;;4982072;28;20055;-76
2022/05/27 09:52:54;;;;;;;118.10;106.55;;;14.70;80.90;;;;;;4984146;28;20138;-77
2022/05/27 09:55:26;;;;;;;117.43;106.00;;;14.70;81.00;;;;;;4966116;28;20079;-78
2022/05/27 09:58:00;;;;;;;116.20;104.95;;;14.80;78.50;;;;;;4993116;28;20082;-79
2022/05/27 10:00:37;;;;;;;118.10;106.43;;;14.80;76.50;;;;;;4972358;28;20055;-78
2022/05/27 10:03:23;;;;;;;118.28;106.80;;;14.80;78.30;;;;;;4962690;28;20130;-79
2022/05/27 10:05:54;;;;;;;117.93;106.45;;;14.80;78.30;;;;;;4985639;28;20518;-78
2022/05/27 10:08:34;;;;;;;118.40;106.63;;;14.80;74.70;;;;;;4973023;28;20058;-77
2022/05/27 10:11:23;;;;;;;118.28;106.55;;;14.80;75.50;;;;;;4993577;28;20058;-79
2022/05/27 10:14:22;;;;;;;117.45;105.82;;;14.70;76.60;;;;;;4975108;28;20055;-78
2022/05/27 10:17:14;;;;;;;116.35;104.57;;;14.70;75.60;;;;;;4975970;28;20461;-74
2022/05/27 10:19:42;;;;;;;118.93;107.53;;;14.60;77.40;;;;;;4981391;28;20568;-75
2022/05/27 10:22:21;;;;;;;117.00;105.70;;;14.70;78.80;;;;;;4993134;28;20059;-75
2022/05/27 10:24:57;;;;;;;118.45;106.70;;;14.80;75.90;;;;;;4975773;28;20486;-75
2022/05/27 10:27:32;;;;;;;116.53;105.25;;;14.80;73.40;;;;;;4996320;28;20137;-76
2022/05/27 10:30:06;;;;;;;115.05;104.00;;;14.70;73.50;;;;;;4979309;28;20051;-75
2022/05/27 10:32:35;;;;;;;116.60;105.28;;;14.80;73.70;;;;;;4996414;28;20055;-76
2022/05/27 10:35:03;;;;;;;115.25;103.88;;;14.70;74.30;;;;;;4995444;28;20058;-77
2022/05/27 10:37:46;;;;;;;118.25;106.30;;;14.70;73.10;;;;;;4978754;28;20053;-75
2022/05/27 10:40:26;;;;;;;118.32;106.82;;;14.70;76.40;;;;;;4995329;28;20055;-75
2022/05/27 10:43:02;;;;;;;117.55;105.80;;;14.80;75.20;;;;;;4978913;28;20134;-76
2022/05/27 10:45:33;;;;;;;116.18;104.90;;;14.80;77.20;;;;;;4996892;28;20062;-76
2022/05/27 10:48:22;;;;;;;117.35;105.78;;;14.80;75.20;;;;;;4996177;28;20051;-75
2022/05/27 10:50:57;;;;;;;117.65;105.88;;;14.80;75.10;;;;;;4996482;28;20059;-74
2022/05/27 10:54:15;;;;;;;117.57;105.80;;;14.90;74.30;;;;;;4978542;28;20051;-75
2022/05/27 11:02:53;;;;;;;118.32;106.28;;;14.80;77.70;;;;;;4992848;28;20523;-73
2022/05/27 11:05:26;;;;;;;117.22;105.72;;;14.80;78.50;;;;;;4996329;28;20061;-73
2022/05/27 11:08:08;;;;;;;119.57;107.80;;;14.90;76.50;;;;;;4980797;28;20551;-74
2022/05/27 11:10:45;;;;;;;120.45;108.13;;;14.90;77.50;;;;;;4995177;28;20047;-74
2022/05/27 11:16:35;;;;;;;120.97;109.03;;;14.90;80.70;;;;;;4992204;28;20043;-73
2022/05/27 11:19:29;;;;;;;117.65;106.20;;;15.00;78.50;;;;;;4988577;28;20133;-75
2022/05/27 11:22:11;;;;;;;123.05;110.95;;;15.00;77.10;;;;;;4988323;28;20057;-74
2022/05/27 11:25:07;;;;;;;116.25;104.85;;;15.10;77.60;;;;;;4962848;28;20509;-74
2022/05/27 11:27:50;;;;;;;118.00;106.15;;;15.00;76.60;;;;;;4989270;28;20055;-75
2022/05/27 11:30:27;;;;;;;118.72;106.85;;;15.10;77.10;;;;;;4984036;28;20047;-76
2022/05/27 11:33:05;;;;;;;119.43;107.40;;;15.10;77.00;;;;;;4982581;28;20609;-74
2022/05/27 11:35:45;;;;;;;121.85;109.45;;;15.10;75.20;;;;;;4985222;28;20134;-73
2022/05/27 11:38:30;;;;;;;118.47;106.60;;;15.00;75.90;;;;;;4972496;28;20544;-73
2022/05/27 11:41:00;;;;;;;;;;;14.90;76.60;;;;;;4989367;28;20139;-73
2022/05/27 11:43:58;;;;;;;117.90;106.20;;;15.00;73.90;;;;;;4985483;28;19926;-73
2022/05/27 11:46:51;;;;;;;116.47;105.22;;;15.00;73.40;;;;;;4958985;28;20111;-74
2022/05/27 11:49:36;;;;;;;119.63;108.13;;;15.00;72.00;;;;;;4962043;28;20051;-75
2022/05/27 11:52:21;;;;;;;;;;;14.90;73.20;;;;;;4993647;28;20054;-75
2022/05/27 11:55:04;;;;;;;116.50;105.05;;;14.90;75.30;;;;;;4974254;28;20380;-74
2022/05/27 11:57:44;;;;;;;117.57;105.93;;;14.90;74.10;;;;;;4992926;28;20055;-74
2022/05/27 12:00:16;;;;;;;120.20;108.45;;;15.00;73.60;;;;;;4971460;28;20489;-74
2022/05/27 12:02:52;;;;;;;119.28;107.18;;;15.00;75.40;;;;;;4986595;28;20071;-74
2022/05/27 12:05:22;;;;;;;128.35;115.38;;;15.00;76.10;;;;;;4986038;28;20060;-73
2022/05/27 12:07:57;;;;;;;119.40;107.65;;;15.10;76.10;;;;;;4992135;28;20082;-74
2022/05/27 12:10:30;;;;;;;119.55;107.38;;;15.20;78.00;;;;;;5002805;28;20055;-74
2022/05/27 12:13:02;;;;;;;119.15;107.32;;;15.20;73.60;;;;;;4985927;28;20082;-73
2022/05/27 12:15:35;;;;;;;119.93;108.20;;;15.20;73.20;;;;;;4982689;28;20630;-72
2022/05/27 12:18:08;;;;;;;119.03;107.15;;;15.20;70.70;;;;;;4970096;28;20165;-74
2022/05/27 12:20:37;;;;;;;119.50;107.78;;;15.20;70.90;;;;;;4983301;28;20055;-74
2022/05/27 12:23:07;;;;;;;120.85;108.88;;;15.20;71.90;;;;;;4986654;28;20095;-74
2022/05/27 12:25:43;;;;;;;122.00;109.43;;;15.10;73.00;;;;;;4982244;28;20047;-74
2022/05/27 12:28:10;;;;;;;120.05;108.05;;;15.10;76.80;;;;;;4981806;28;20055;-74
2022/05/27 12:30:41;;;;;;;119.10;107.30;;;15.10;78.00;;;;;;4981843;28;20054;-75
2022/05/27 12:33:11;;;;;;;120.05;107.72;;;15.10;75.50;;;;;;4967672;28;20051;-74
2022/05/27 12:35:51;;;;;;;120.18;108.00;;;15.10;76.30;;;;;;4987061;28;20062;-73
2022/05/27 12:38:25;;;;;;;121.43;109.18;;;15.10;75.40;;;;;;4975787;28;20090;-73
2022/05/27 12:40:55;;;;;;;119.22;106.95;;;15.00;78.10;;;;;;4957533;28;20489;-74
2022/05/27 12:43:31;;;;;;;118.75;107.05;;;15.10;77.80;;;;;;4957029;28;20066;-74
2022/05/27 12:46:30;;;;;;;118.90;107.07;;;15.00;77.40;;;;;;4957231;28;20055;-74
2022/05/27 12:49:27;;;;;;;121.20;108.93;;;15.10;77.10;;;;;;4955436;28;20138;-74
2022/05/27 12:51:55;;;;;;;119.45;107.78;;;15.10;77.70;;;;;;4953108;28;20053;-75
2022/05/27 12:55:00;;;;;;;121.50;108.75;;;15.10;74.90;;;;;;4973339;28;20059;-75
2022/05/27 13:03:51;;;;;;;117.55;105.85;;;15.10;75.60;;;;;;4936563;28;20491;-83
2022/05/27 13:06:37;;;;;;;117.85;106.55;;;15.10;75.40;;;;;;4970714;28;20059;-78
2022/05/27 13:09:08;;;;;;;118.95;106.72;;;15.10;74.70;;;;;;4957028;28;20803;-84